Terminal Aerodrome Forecast
Issued by NWS Wilmington, OH

Home | Current Version | Previous Version | Text Only | Print | Product List | Glossary On
Versions: 1 2 3 4 5 6 7 8 9 10 11 12 13 14 15 16 17 18 19 20 21 22 23 24 25 26 27
421
FTUS41 KILN 200524
TAFILN
TAF
KILN 200524Z 2006/2106 11008KT 5SM -RA BR OVC015
      TEMPO 2006/2010 1SM RA BR OVC015
     FM201000 16008KT 3SM -RA BR OVC007
     FM201400 22009KT P6SM OVC007
     FM202100 20007KT P6SM BKN018
     FM210300 18004KT P6SM BKN007=

USA.gov is the U.S. government's official web portal to all federal, state and local government web resources and services.